Gowanda, New York
Current Conditions -  °F | °C
As of 12:53 PM on Sunday 25 Jan 2015 (Local Time) from KDKK Reporting Station
Light Snow Light Snow  
Wind Chill:   Ceiling: 1800
Heat Index: 17°   Visibility: 5mi
Dew Point: 11°   Wind: 10mph
Humidity: 77%   Direction: 10°N
Pressure: 29.91"   Gusts: NA
Location:  42.46°N, 78.94°W
Report Text: KDKK 251753Z AUTO 01009KT 5SM -SN OVC018 M08/M12 A2991 RMK AO2 SNB02 SLP140 P0000 60000 T10831117 11039 21083 50008
Loading
Personal Weather Stations






























Interactive Weather Map New forecast layout! Learn more

10-Day Weather Forecast

Advertisements
Track Severe Weather on mobile